sensor_id;sensor_type;location;lat;lon;timestamp;pressure;altitude;pressure_sealevel;temperature;humidity
69570;BME280;56781;42.292;23.146;2022-12-18T00:01:27;96232.84;;;7.41;100.00
69570;BME280;56781;42.292;23.146;2022-12-18T00:03:55;96179.97;;;7.07;100.00
69570;BME280;56781;42.292;23.146;2022-12-18T00:06:24;96216.56;;;7.38;100.00
69570;BME280;56781;42.292;23.146;2022-12-18T00:08:52;96189.34;;;7.20;100.00
69570;BME280;56781;42.292;23.146;2022-12-18T00:11:22;96192.31;;;7.29;100.00
69570;BME280;56781;42.292;23.146;2022-12-18T00:13:50;96198.47;;;7.40;100.00
69570;BME280;56781;42.292;23.146;2022-12-18T00:16:20;96184.59;;;7.32;100.00
69570;BME280;56781;42.292;23.146;2022-12-18T00:18:48;96188.59;;;7.40;100.00
69570;BME280;56781;42.292;23.146;2022-12-18T00:21:16;96203.81;;;7.45;100.00
69570;BME280;56781;42.292;23.146;2022-12-18T00:23:44;96265.13;;;7.70;100.00
69570;BME280;56781;42.292;23.146;2022-12-18T00:26:14;96221.69;;;7.49;100.00
69570;BME280;56781;42.292;23.146;2022-12-18T00:28:45;96207.78;;;7.37;100.00
69570;BME280;56781;42.292;23.146;2022-12-18T00:31:15;96205.66;;;7.39;100.00
69570;BME280;56781;42.292;23.146;2022-12-18T00:33:43;96191.00;;;7.37;100.00
69570;BME280;56781;42.292;23.146;2022-12-18T00:36:18;96231.28;;;7.61;100.00
69570;BME280;56781;42.292;23.146;2022-12-18T00:38:47;96220.63;;;7.55;100.00
69570;BME280;56781;42.292;23.146;2022-12-18T00:41:15;96217.38;;;7.43;100.00
69570;BME280;56781;42.292;23.146;2022-12-18T00:44:02;96233.41;;;7.59;100.00
69570;BME280;56781;42.292;23.146;2022-12-18T00:46:29;96233.38;;;7.53;100.00
69570;BME280;56781;42.292;23.146;2022-12-18T00:48:57;96239.78;;;7.47;100.00
69570;BME280;56781;42.292;23.146;2022-12-18T00:51:25;96237.84;;;7.32;100.00
69570;BME280;56781;42.292;23.146;2022-12-18T00:53:52;96247.19;;;7.40;100.00
69570;BME280;56781;42.292;23.146;2022-12-18T00:56:19;96228.03;;;7.33;100.00
69570;BME280;56781;42.292;23.146;2022-12-18T00:58:46;96268.03;;;7.59;100.00
69570;BME280;56781;42.292;23.146;2022-12-18T01:01:14;96243.75;;;7.45;100.00
69570;BME280;56781;42.292;23.146;2022-12-18T01:03:42;96246.16;;;7.51;100.00
69570;BME280;56781;42.292;23.146;2022-12-18T01:06:11;96228.56;;;7.45;100.00
69570;BME280;56781;42.292;23.146;2022-12-18T01:08:38;96239.28;;;7.61;100.00
69570;BME280;56781;42.292;23.146;2022-12-18T01:11:11;96256.63;;;7.68;100.00
69570;BME280;56781;42.292;23.146;2022-12-18T01:13:39;96233.16;;;7.60;100.00
69570;BME280;56781;42.292;23.146;2022-12-18T01:16:07;96248.84;;;7.57;99.70
69570;BME280;56781;42.292;23.146;2022-12-18T01:18:35;96260.63;;;7.71;99.59
69570;BME280;56781;42.292;23.146;2022-12-18T01:21:07;96224.28;;;7.34;99.50
69570;BME280;56781;42.292;23.146;2022-12-18T01:23:35;96298.94;;;7.49;100.00
69570;BME280;56781;42.292;23.146;2022-12-18T01:26:11;96253.31;;;6.83;100.00
69570;BME280;56781;42.292;23.146;2022-12-18T01:28:39;96293.38;;;7.03;100.00
69570;BME280;56781;42.292;23.146;2022-12-18T01:31:22;96245.72;;;6.59;100.00
69570;BME280;56781;42.292;23.146;2022-12-18T01:33:51;96209.13;;;6.34;100.00
69570;BME280;56781;42.292;23.146;2022-12-18T01:36:22;96226.66;;;6.30;100.00
69570;BME280;56781;42.292;23.146;2022-12-18T01:38:49;96277.41;;;6.61;100.00
69570;BME280;56781;42.292;23.146;2022-12-18T01:41:20;96232.97;;;6.19;100.00
69570;BME280;56781;42.292;23.146;2022-12-18T01:43:51;96281.00;;;6.44;100.00
69570;BME280;56781;42.292;23.146;2022-12-18T01:46:20;96250.78;;;6.24;100.00
69570;BME280;56781;42.292;23.146;2022-12-18T01:48:57;96265.44;;;6.26;100.00
69570;BME280;56781;42.292;23.146;2022-12-18T01:51:25;96322.59;;;6.56;100.00
69570;BME280;56781;42.292;23.146;2022-12-18T01:53:53;96264.50;;;6.10;100.00
69570;BME280;56781;42.292;23.146;2022-12-18T01:56:21;96249.84;;;6.08;100.00
69570;BME280;56781;42.292;23.146;2022-12-18T01:58:55;96275.63;;;6.07;100.00
69570;BME280;56781;42.292;23.146;2022-12-18T02:01:25;96251.56;;;5.92;100.00
69570;BME280;56781;42.292;23.146;2022-12-18T02:03:53;96323.78;;;6.38;100.00
69570;BME280;56781;42.292;23.146;2022-12-18T02:06:40;96275.13;;;6.10;100.00
69570;BME280;56781;42.292;23.146;2022-12-18T02:09:18;96331.69;;;6.60;100.00
69570;BME280;56781;42.292;23.146;2022-12-18T02:11:59;96259.59;;;6.29;99.51
69570;BME280;56781;42.292;23.146;2022-12-18T02:14:37;96293.78;;;6.48;97.93
69570;BME280;56781;42.292;23.146;2022-12-18T02:17:28;96288.66;;;6.36;98.36
69570;BME280;56781;42.292;23.146;2022-12-18T02:23:04;96297.81;;;6.18;98.18
69570;BME280;56781;42.292;23.146;2022-12-18T02:26:02;96305.13;;;6.33;99.34
69570;BME280;56781;42.292;23.146;2022-12-18T02:28:42;96354.03;;;6.64;98.23
69570;BME280;56781;42.292;23.146;2022-12-18T02:31:15;96297.19;;;6.38;98.00
69570;BME280;56781;42.292;23.146;2022-12-18T02:33:44;96328.75;;;6.61;95.91
69570;BME280;56781;42.292;23.146;2022-12-18T02:36:14;96292.97;;;6.42;96.42
69570;BME280;56781;42.292;23.146;2022-12-18T02:38:44;96302.88;;;6.52;97.07
69570;BME280;56781;42.292;23.146;2022-12-18T02:41:13;96333.44;;;6.81;95.45
69570;BME280;56781;42.292;23.146;2022-12-18T02:43:46;96291.50;;;6.61;96.17
69570;BME280;56781;42.292;23.146;2022-12-18T02:46:32;96367.41;;;7.06;97.25
69570;BME280;56781;42.292;23.146;2022-12-18T02:49:21;96334.75;;;6.79;95.39
69570;BME280;56781;42.292;23.146;2022-12-18T02:51:53;96359.16;;;7.08;94.50
69570;BME280;56781;42.292;23.146;2022-12-18T02:54:35;96387.06;;;7.05;92.29
69570;BME280;56781;42.292;23.146;2022-12-18T02:57:20;96358.13;;;6.77;93.35
69570;BME280;56781;42.292;23.146;2022-12-18T03:00:06;96311.03;;;6.13;94.50
69570;BME280;56781;42.292;23.146;2022-12-18T03:05:12;96330.31;;;5.98;96.58
69570;BME280;56781;42.292;23.146;2022-12-18T03:10:29;96357.28;;;6.39;95.60
69570;BME280;56781;42.292;23.146;2022-12-18T03:16:12;96400.13;;;6.70;95.65
69570;BME280;56781;42.292;23.146;2022-12-18T03:18:46;96311.66;;;6.20;95.20
69570;BME280;56781;42.292;23.146;2022-12-18T03:21:18;96345.19;;;6.53;94.62
69570;BME280;56781;42.292;23.146;2022-12-18T03:23:49;96345.13;;;6.48;94.71
69570;BME280;56781;42.292;23.146;2022-12-18T03:26:23;96353.72;;;6.55;94.88
69570;BME280;56781;42.292;23.146;2022-12-18T03:28:54;96343.91;;;6.61;94.82
69570;BME280;56781;42.292;23.146;2022-12-18T03:31:25;96310.03;;;6.46;94.59
69570;BME280;56781;42.292;23.146;2022-12-18T03:33:59;96351.72;;;6.73;94.13
69570;BME280;56781;42.292;23.146;2022-12-18T03:36:28;96355.75;;;6.48;94.73
69570;BME280;56781;42.292;23.146;2022-12-18T03:38:58;96346.94;;;6.42;95.81
69570;BME280;56781;42.292;23.146;2022-12-18T03:44:13;96366.63;;;6.41;96.63
69570;BME280;56781;42.292;23.146;2022-12-18T03:46:51;96350.38;;;6.11;96.21
69570;BME280;56781;42.292;23.146;2022-12-18T03:49:40;96381.47;;;6.10;97.13
69570;BME280;56781;42.292;23.146;2022-12-18T03:52:35;96446.19;;;6.48;96.94
69570;BME280;56781;42.292;23.146;2022-12-18T03:55:05;96360.56;;;5.75;97.19
69570;BME280;56781;42.292;23.146;2022-12-18T03:57:33;96379.00;;;5.82;97.01
69570;BME280;56781;42.292;23.146;2022-12-18T04:00:11;96404.72;;;5.98;97.46
69570;BME280;56781;42.292;23.146;2022-12-18T04:02:44;96401.81;;;5.99;97.07
69570;BME280;56781;42.292;23.146;2022-12-18T04:05:14;96377.75;;;5.89;96.24
69570;BME280;56781;42.292;23.146;2022-12-18T04:07:43;96418.00;;;6.20;95.83
69570;BME280;56781;42.292;23.146;2022-12-18T04:10:12;96419.78;;;6.14;94.83
69570;BME280;56781;42.292;23.146;2022-12-18T04:12:40;96410.63;;;6.05;96.26
69570;BME280;56781;42.292;23.146;2022-12-18T04:15:08;96396.09;;;5.91;96.18
69570;BME280;56781;42.292;23.146;2022-12-18T04:17:35;96418.00;;;5.98;96.01
69570;BME280;56781;42.292;23.146;2022-12-18T04:20:02;96418.00;;;5.98;95.68
69570;BME280;56781;42.292;23.146;2022-12-18T04:22:30;96444.22;;;6.11;95.76
69570;BME280;56781;42.292;23.146;2022-12-18T04:24:57;96480.06;;;6.31;96.16
69570;BME280;56781;42.292;23.146;2022-12-18T04:27:24;96486.75;;;6.33;95.87
69570;BME280;56781;42.292;23.146;2022-12-18T04:29:51;96432.50;;;5.90;95.42
69570;BME280;56781;42.292;23.146;2022-12-18T04:32:18;96430.50;;;5.81;96.51
69570;BME280;56781;42.292;23.146;2022-12-18T04:34:45;96478.06;;;5.99;96.71
69570;BME280;56781;42.292;23.146;2022-12-18T04:37:12;96440.28;;;5.75;95.50
69570;BME280;56781;42.292;23.146;2022-12-18T04:39:39;96443.00;;;5.80;95.56
69570;BME280;56781;42.292;23.146;2022-12-18T04:42:06;96446.03;;;5.89;94.17
69570;BME280;56781;42.292;23.146;2022-12-18T04:44:34;96450.47;;;5.83;93.69
69570;BME280;56781;42.292;23.146;2022-12-18T04:47:01;96455.47;;;5.80;94.03
69570;BME280;56781;42.292;23.146;2022-12-18T04:49:28;96452.44;;;5.71;93.60
69570;BME280;56781;42.292;23.146;2022-12-18T04:51:55;96462.88;;;5.77;93.34
69570;BME280;56781;42.292;23.146;2022-12-18T04:54:22;96497.19;;;5.96;92.99
69570;BME280;56781;42.292;23.146;2022-12-18T04:56:49;96478.75;;;5.72;93.18
69570;BME280;56781;42.292;23.146;2022-12-18T04:59:16;96492.28;;;5.71;93.34
69570;BME280;56781;42.292;23.146;2022-12-18T05:01:43;96484.56;;;5.69;93.24
69570;BME280;56781;42.292;23.146;2022-12-18T05:04:11;96521.34;;;5.94;93.20
69570;BME280;56781;42.292;23.146;2022-12-18T05:06:38;96523.25;;;5.99;93.20
69570;BME280;56781;42.292;23.146;2022-12-18T05:09:05;96504.75;;;5.87;92.50
69570;BME280;56781;42.292;23.146;2022-12-18T05:11:32;96564.50;;;6.24;92.36
69570;BME280;56781;42.292;23.146;2022-12-18T05:13:59;96510.47;;;5.79;92.89
69570;BME280;56781;42.292;23.146;2022-12-18T05:16:26;96533.72;;;5.89;92.85
69570;BME280;56781;42.292;23.146;2022-12-18T05:18:53;96518.28;;;5.69;93.17
69570;BME280;56781;42.292;23.146;2022-12-18T05:21:20;96522.81;;;5.68;93.63
69570;BME280;56781;42.292;23.146;2022-12-18T05:23:47;96538.03;;;5.73;94.12
69570;BME280;56781;42.292;23.146;2022-12-18T05:26:17;96500.53;;;5.52;93.07
69570;BME280;56781;42.292;23.146;2022-12-18T05:28:45;96507.94;;;5.67;92.54
69570;BME280;56781;42.292;23.146;2022-12-18T05:31:12;96511.53;;;5.61;91.83
69570;BME280;56781;42.292;23.146;2022-12-18T05:33:39;96523.22;;;5.60;92.50
69570;BME280;56781;42.292;23.146;2022-12-18T05:36:08;96519.34;;;5.51;92.74
69570;BME280;56781;42.292;23.146;2022-12-18T05:38:38;96518.13;;;5.59;92.89
69570;BME280;56781;42.292;23.146;2022-12-18T05:41:06;96525.94;;;5.65;92.58
69570;BME280;56781;42.292;23.146;2022-12-18T05:43:35;96530.69;;;5.63;92.93
69570;BME280;56781;42.292;23.146;2022-12-18T05:46:07;96590.19;;;5.96;95.86
69570;BME280;56781;42.292;23.146;2022-12-18T05:48:34;96536.19;;;5.57;94.20
69570;BME280;56781;42.292;23.146;2022-12-18T05:51:09;96581.06;;;5.92;93.59
69570;BME280;56781;42.292;23.146;2022-12-18T05:53:37;96513.63;;;5.42;94.45
69570;BME280;56781;42.292;23.146;2022-12-18T05:56:07;96531.44;;;5.42;93.31
69570;BME280;56781;42.292;23.146;2022-12-18T05:58:35;96549.78;;;5.43;92.77
69570;BME280;56781;42.292;23.146;2022-12-18T06:01:07;96546.88;;;5.28;93.84
69570;BME280;56781;42.292;23.146;2022-12-18T06:03:35;96536.97;;;5.23;93.86
69570;BME280;56781;42.292;23.146;2022-12-18T06:06:02;96538.41;;;5.14;94.75
69570;BME280;56781;42.292;23.146;2022-12-18T06:08:29;96559.91;;;5.29;99.69
69570;BME280;56781;42.292;23.146;2022-12-18T06:10:57;96591.88;;;5.68;100.00
69570;BME280;56781;42.292;23.146;2022-12-18T06:13:24;96567.88;;;5.46;96.30
69570;BME280;56781;42.292;23.146;2022-12-18T06:15:51;96582.06;;;5.52;94.23
69570;BME280;56781;42.292;23.146;2022-12-18T06:18:18;96603.97;;;5.59;94.48
69570;BME280;56781;42.292;23.146;2022-12-18T06:20:45;96566.25;;;5.28;92.37
69570;BME280;56781;42.292;23.146;2022-12-18T06:23:20;96545.47;;;4.92;93.08
69570;BME280;56781;42.292;23.146;2022-12-18T06:25:47;96596.13;;;5.07;94.04
69570;BME280;56781;42.292;23.146;2022-12-18T06:28:14;96609.50;;;5.12;94.00
69570;BME280;56781;42.292;23.146;2022-12-18T06:30:45;96605.25;;;4.82;95.48
69570;BME280;56781;42.292;23.146;2022-12-18T06:33:13;96612.97;;;4.84;96.96
69570;BME280;56781;42.292;23.146;2022-12-18T06:35:40;96607.78;;;4.77;96.04
69570;BME280;56781;42.292;23.146;2022-12-18T06:38:08;96598.81;;;4.78;97.18
69570;BME280;56781;42.292;23.146;2022-12-18T06:40:37;96646.81;;;5.05;97.29
69570;BME280;56781;42.292;23.146;2022-12-18T06:43:05;96598.81;;;4.78;97.71
69570;BME280;56781;42.292;23.146;2022-12-18T06:45:33;96600.41;;;4.79;96.12
69570;BME280;56781;42.292;23.146;2022-12-18T06:48:00;96621.03;;;4.89;96.84
69570;BME280;56781;42.292;23.146;2022-12-18T06:50:30;96627.66;;;5.03;100.00
69570;BME280;56781;42.292;23.146;2022-12-18T06:52:57;96633.88;;;5.09;100.00
69570;BME280;56781;42.292;23.146;2022-12-18T06:55:25;96623.47;;;5.07;97.57
69570;BME280;56781;42.292;23.146;2022-12-18T06:57:58;96646.84;;;5.22;95.22
69570;BME280;56781;42.292;23.146;2022-12-18T07:00:28;96648.84;;;5.15;94.95
69570;BME280;56781;42.292;23.146;2022-12-18T07:02:55;96670.97;;;5.21;94.56
69570;BME280;56781;42.292;23.146;2022-12-18T07:05:22;96644.63;;;5.02;95.55
69570;BME280;56781;42.292;23.146;2022-12-18T07:07:49;96634.25;;;5.01;93.62
69570;BME280;56781;42.292;23.146;2022-12-18T07:10:20;96667.41;;;5.15;93.50
69570;BME280;56781;42.292;23.146;2022-12-18T07:12:47;96644.75;;;4.96;92.93
69570;BME280;56781;42.292;23.146;2022-12-18T07:15:15;96661.47;;;5.08;93.58
69570;BME280;56781;42.292;23.146;2022-12-18T07:17:42;96668.84;;;5.06;90.84
69570;BME280;56781;42.292;23.146;2022-12-18T07:20:09;96646.72;;;4.88;92.03
69570;BME280;56781;42.292;23.146;2022-12-18T07:22:37;96661.53;;;4.84;91.90
69570;BME280;56781;42.292;23.146;2022-12-18T07:25:04;96705.75;;;5.07;92.54
69570;BME280;56781;42.292;23.146;2022-12-18T07:27:31;96681.00;;;4.90;93.27
69570;BME280;56781;42.292;23.146;2022-12-18T07:29:58;96685.03;;;4.93;92.24
69570;BME280;56781;42.292;23.146;2022-12-18T07:32:25;96679.03;;;4.85;92.03
69570;BME280;56781;42.292;23.146;2022-12-18T07:34:52;96718.22;;;5.07;92.56
69570;BME280;56781;42.292;23.146;2022-12-18T07:37:20;96689.00;;;4.78;92.01
69570;BME280;56781;42.292;23.146;2022-12-18T07:39:47;96700.63;;;4.77;91.96
69570;BME280;56781;42.292;23.146;2022-12-18T07:42:15;96706.97;;;4.76;91.92
69570;BME280;56781;42.292;23.146;2022-12-18T07:45:00;96703.75;;;4.74;91.51
69570;BME280;56781;42.292;23.146;2022-12-18T07:47:28;96717.44;;;4.83;91.10
69570;BME280;56781;42.292;23.146;2022-12-18T07:50:06;96731.19;;;4.80;90.54
69570;BME280;56781;42.292;23.146;2022-12-18T07:52:34;96706.28;;;4.69;91.43
69570;BME280;56781;42.292;23.146;2022-12-18T07:55:02;96721.28;;;4.75;90.33
69570;BME280;56781;42.292;23.146;2022-12-18T07:57:29;96725.91;;;4.68;91.32
69570;BME280;56781;42.292;23.146;2022-12-18T08:00:16;96731.06;;;4.75;90.63
69570;BME280;56781;42.292;23.146;2022-12-18T08:02:43;96738.47;;;4.84;90.64
69570;BME280;56781;42.292;23.146;2022-12-18T08:05:11;96738.81;;;4.76;90.25
69570;BME280;56781;42.292;23.146;2022-12-18T08:07:38;96747.44;;;4.95;90.46
69570;BME280;56781;42.292;23.146;2022-12-18T08:10:06;96772.75;;;5.26;90.60
69570;BME280;56781;42.292;23.146;2022-12-18T08:12:34;96763.06;;;5.20;90.96
69570;BME280;56781;42.292;23.146;2022-12-18T08:15:02;96771.47;;;5.29;90.89
69570;BME280;56781;42.292;23.146;2022-12-18T08:17:30;96760.13;;;4.93;90.10
69570;BME280;56781;42.292;23.146;2022-12-18T08:19:57;96748.59;;;4.87;91.41
69570;BME280;56781;42.292;23.146;2022-12-18T08:22:24;96754.81;;;5.05;91.21
69570;BME280;56781;42.292;23.146;2022-12-18T08:24:51;96744.63;;;5.14;90.47
69570;BME280;56781;42.292;23.146;2022-12-18T08:27:18;96778.75;;;5.33;89.54
69570;BME280;56781;42.292;23.146;2022-12-18T08:29:56;96759.28;;;5.16;88.88
69570;BME280;56781;42.292;23.146;2022-12-18T08:32:24;96794.09;;;5.31;89.55
69570;BME280;56781;42.292;23.146;2022-12-18T08:34:52;96801.03;;;5.32;89.92
69570;BME280;56781;42.292;23.146;2022-12-18T08:37:19;96811.66;;;5.32;90.37
69570;BME280;56781;42.292;23.146;2022-12-18T08:39:46;96805.44;;;5.15;88.90
69570;BME280;56781;42.292;23.146;2022-12-18T08:42:13;96769.47;;;4.96;89.75
69570;BME280;56781;42.292;23.146;2022-12-18T08:44:58;96755.31;;;4.78;89.80
69570;BME280;56781;42.292;23.146;2022-12-18T08:47:26;96776.72;;;4.88;89.49
69570;BME280;56781;42.292;23.146;2022-12-18T08:49:53;96767.88;;;4.71;89.80
69570;BME280;56781;42.292;23.146;2022-12-18T08:52:20;96810.53;;;4.93;90.94
69570;BME280;56781;42.292;23.146;2022-12-18T08:54:47;96805.00;;;4.95;89.70
69570;BME280;56781;42.292;23.146;2022-12-18T08:57:14;96778.84;;;4.86;90.39
69570;BME280;56781;42.292;23.146;2022-12-18T08:59:41;96720.72;;;4.50;89.68
69570;BME280;56781;42.292;23.146;2022-12-18T09:02:10;96805.69;;;5.02;89.65
69570;BME280;56781;42.292;23.146;2022-12-18T09:04:38;96769.13;;;4.80;89.11
69570;BME280;56781;42.292;23.146;2022-12-18T09:07:06;96772.69;;;4.98;90.27
69570;BME280;56781;42.292;23.146;2022-12-18T09:09:33;96757.94;;;4.90;88.52
69570;BME280;56781;42.292;23.146;2022-12-18T09:12:00;96767.63;;;5.08;88.87
69570;BME280;56781;42.292;23.146;2022-12-18T09:14:27;96774.53;;;5.09;88.08
69570;BME280;56781;42.292;23.146;2022-12-18T09:16:54;96771.72;;;5.16;87.00
69570;BME280;56781;42.292;23.146;2022-12-18T09:19:22;96783.00;;;5.34;88.90
69570;BME280;56781;42.292;23.146;2022-12-18T09:21:49;96777.09;;;5.44;87.60
69570;BME280;56781;42.292;23.146;2022-12-18T09:24:16;96774.00;;;5.36;87.31
69570;BME280;56781;42.292;23.146;2022-12-18T09:26:43;96766.16;;;5.41;86.15
69570;BME280;56781;42.292;23.146;2022-12-18T09:29:13;96771.94;;;5.38;85.97
69570;BME280;56781;42.292;23.146;2022-12-18T09:31:44;96809.59;;;5.63;85.89
69570;BME280;56781;42.292;23.146;2022-12-18T09:34:11;96764.25;;;5.53;85.71
69570;BME280;56781;42.292;23.146;2022-12-18T09:36:38;96746.59;;;5.47;84.57
69570;BME280;56781;42.292;23.146;2022-12-18T09:39:05;96772.50;;;5.68;84.75
69570;BME280;56781;42.292;23.146;2022-12-18T09:41:52;96795.66;;;5.85;84.50
69570;BME280;56781;42.292;23.146;2022-12-18T09:44:29;96748.03;;;5.66;84.56
69570;BME280;56781;42.292;23.146;2022-12-18T09:47:14;96786.00;;;5.78;85.36
69570;BME280;56781;42.292;23.146;2022-12-18T09:49:45;96753.13;;;5.68;85.53
69570;BME280;56781;42.292;23.146;2022-12-18T09:55:20;96734.47;;;5.51;85.64
69570;BME280;56781;42.292;23.146;2022-12-18T09:57:56;96753.31;;;5.49;85.97
69570;BME280;56781;42.292;23.146;2022-12-18T10:00:25;96741.31;;;5.47;86.58
69570;BME280;56781;42.292;23.146;2022-12-18T10:03:01;96781.19;;;5.64;86.66
69570;BME280;56781;42.292;23.146;2022-12-18T10:06:10;96787.28;;;5.64;86.29
69570;BME280;56781;42.292;23.146;2022-12-18T10:14:34;96776.25;;;5.84;86.15
69570;BME280;56781;42.292;23.146;2022-12-18T10:20:33;96776.72;;;6.10;85.05
69570;BME280;56781;42.292;23.146;2022-12-18T10:26:00;96772.88;;;6.17;83.91
69570;BME280;56781;42.292;23.146;2022-12-18T10:28:30;96740.63;;;5.97;84.54
69570;BME280;56781;42.292;23.146;2022-12-18T10:30:58;96733.69;;;5.96;84.67
69570;BME280;56781;42.292;23.146;2022-12-18T10:33:29;96737.03;;;6.03;83.33
69570;BME280;56781;42.292;23.146;2022-12-18T10:35:57;96729.91;;;5.92;82.49
69570;BME280;56781;42.292;23.146;2022-12-18T10:38:28;96772.47;;;6.09;83.43
69570;BME280;56781;42.292;23.146;2022-12-18T10:41:04;96768.31;;;6.30;84.40
69570;BME280;56781;42.292;23.146;2022-12-18T10:43:37;96720.41;;;5.96;83.77
69570;BME280;56781;42.292;23.146;2022-12-18T10:46:12;96725.50;;;6.14;84.27
69570;BME280;56781;42.292;23.146;2022-12-18T10:51:24;96730.97;;;6.08;84.91
69570;BME280;56781;42.292;23.146;2022-12-18T10:53:55;96728.56;;;6.06;86.04
69570;BME280;56781;42.292;23.146;2022-12-18T10:56:25;96728.16;;;6.14;84.87
69570;BME280;56781;42.292;23.146;2022-12-18T10:59:00;96732.50;;;6.20;84.71
69570;BME280;56781;42.292;23.146;2022-12-18T11:04:49;96735.75;;;6.22;86.57
69570;BME280;56781;42.292;23.146;2022-12-18T11:07:17;96720.34;;;6.08;85.87
69570;BME280;56781;42.292;23.146;2022-12-18T11:09:59;96744.28;;;6.25;84.91
69570;BME280;56781;42.292;23.146;2022-12-18T11:12:29;96721.88;;;6.04;86.08
69570;BME280;56781;42.292;23.146;2022-12-18T11:14:57;96723.06;;;6.13;86.67
69570;BME280;56781;42.292;23.146;2022-12-18T11:17:32;96744.28;;;6.41;84.66
69570;BME280;56781;42.292;23.146;2022-12-18T11:20:05;96733.31;;;6.38;85.18
69570;BME280;56781;42.292;23.146;2022-12-18T11:22:35;96729.31;;;6.35;83.65
69570;BME280;56781;42.292;23.146;2022-12-18T11:25:18;96737.66;;;6.44;85.38
69570;BME280;56781;42.292;23.146;2022-12-18T11:28:01;96743.81;;;6.28;84.63
69570;BME280;56781;42.292;23.146;2022-12-18T11:30:34;96727.59;;;6.12;85.01
69570;BME280;56781;42.292;23.146;2022-12-18T11:33:06;96746.06;;;6.19;83.87
69570;BME280;56781;42.292;23.146;2022-12-18T11:35:52;96753.06;;;6.42;85.35
69570;BME280;56781;42.292;23.146;2022-12-18T11:38:26;96738.13;;;6.07;84.07
69570;BME280;56781;42.292;23.146;2022-12-18T11:46:26;96748.78;;;6.24;83.66
69570;BME280;56781;42.292;23.146;2022-12-18T11:49:15;96732.41;;;6.15;83.93
69570;BME280;56781;42.292;23.146;2022-12-18T11:51:48;96772.00;;;6.29;83.29
69570;BME280;56781;42.292;23.146;2022-12-18T11:54:17;96745.53;;;6.05;83.47
69570;BME280;56781;42.292;23.146;2022-12-18T11:57:25;96766.59;;;6.24;84.46
69570;BME280;56781;42.292;23.146;2022-12-18T12:00:03;96789.56;;;6.30;83.16
69570;BME280;56781;42.292;23.146;2022-12-18T12:05:41;96778.28;;;6.22;83.35
69570;BME280;56781;42.292;23.146;2022-12-18T12:11:08;96771.91;;;6.07;82.84
69570;BME280;56781;42.292;23.146;2022-12-18T12:22:16;96778.09;;;5.95;83.34
69570;BME280;56781;42.292;23.146;2022-12-18T12:25:13;96779.00;;;5.89;83.89
69570;BME280;56781;42.292;23.146;2022-12-18T12:28:15;96764.78;;;5.67;82.57
69570;BME280;56781;42.292;23.146;2022-12-18T12:31:11;96796.72;;;5.84;84.45
69570;BME280;56781;42.292;23.146;2022-12-18T12:34:20;96772.31;;;5.58;83.13
69570;BME280;56781;42.292;23.146;2022-12-18T12:39:36;96766.63;;;5.66;81.94
69570;BME280;56781;42.292;23.146;2022-12-18T12:42:06;96810.38;;;5.75;82.94
69570;BME280;56781;42.292;23.146;2022-12-18T12:44:59;96770.84;;;5.50;82.34
69570;BME280;56781;42.292;23.146;2022-12-18T12:47:38;96768.44;;;5.49;83.08
69570;BME280;56781;42.292;23.146;2022-12-18T12:50:14;96771.63;;;5.51;82.27
69570;BME280;56781;42.292;23.146;2022-12-18T12:52:46;96784.78;;;5.58;83.46
69570;BME280;56781;42.292;23.146;2022-12-18T12:55:19;96792.63;;;5.64;83.30
69570;BME280;56781;42.292;23.146;2022-12-18T12:58:10;96784.56;;;5.59;82.91
69570;BME280;56781;42.292;23.146;2022-12-18T13:00:53;96777.53;;;5.53;81.60
69570;BME280;56781;42.292;23.146;2022-12-18T13:08:58;96785.75;;;5.40;81.38
69570;BME280;56781;42.292;23.146;2022-12-18T13:11:32;96799.63;;;5.42;80.71
69570;BME280;56781;42.292;23.146;2022-12-18T13:14:32;96802.97;;;5.49;80.86
69570;BME280;56781;42.292;23.146;2022-12-18T13:20:04;96806.09;;;5.46;80.12
69570;BME280;56781;42.292;23.146;2022-12-18T13:22:38;96820.06;;;5.41;80.19
69570;BME280;56781;42.292;23.146;2022-12-18T13:25:32;96840.91;;;5.61;79.87
69570;BME280;56781;42.292;23.146;2022-12-18T13:41:04;96839.22;;;5.31;79.62
69570;BME280;56781;42.292;23.146;2022-12-18T13:43:49;96833.81;;;5.26;78.55
69570;BME280;56781;42.292;23.146;2022-12-18T13:46:30;96833.38;;;5.29;80.25
69570;BME280;56781;42.292;23.146;2022-12-18T13:49:16;96824.59;;;5.17;77.48
69570;BME280;56781;42.292;23.146;2022-12-18T13:51:49;96823.69;;;5.11;77.01
69570;BME280;56781;42.292;23.146;2022-12-18T13:56:56;96835.69;;;5.14;77.56
69570;BME280;56781;42.292;23.146;2022-12-18T13:59:33;96859.34;;;5.27;77.65
69570;BME280;56781;42.292;23.146;2022-12-18T14:02:11;96842.03;;;5.13;77.80
69570;BME280;56781;42.292;23.146;2022-12-18T14:04:40;96833.97;;;5.08;77.01
69570;BME280;56781;42.292;23.146;2022-12-18T14:07:13;96843.19;;;5.05;76.93
69570;BME280;56781;42.292;23.146;2022-12-18T14:09:44;96855.09;;;5.03;76.47
69570;BME280;56781;42.292;23.146;2022-12-18T14:12:18;96841.56;;;4.93;75.78
69570;BME280;56781;42.292;23.146;2022-12-18T14:15:17;96829.72;;;4.83;76.71
69570;BME280;56781;42.292;23.146;2022-12-18T14:17:50;96836.28;;;4.81;76.35
69570;BME280;56781;42.292;23.146;2022-12-18T14:20:18;96851.03;;;4.77;77.77
69570;BME280;56781;42.292;23.146;2022-12-18T14:22:46;96839.38;;;4.66;77.36
69570;BME280;56781;42.292;23.146;2022-12-18T14:25:26;96849.06;;;4.72;77.34
69570;BME280;56781;42.292;23.146;2022-12-18T14:30:41;96855.97;;;4.61;76.74
69570;BME280;56781;42.292;23.146;2022-12-18T14:33:11;96850.91;;;4.60;77.84
69570;BME280;56781;42.292;23.146;2022-12-18T14:35:59;96878.13;;;4.67;78.03
69570;BME280;56781;42.292;23.146;2022-12-18T14:38:37;96863.91;;;4.50;78.30
69570;BME280;56781;42.292;23.146;2022-12-18T14:43:34;96864.34;;;4.35;77.68
69570;BME280;56781;42.292;23.146;2022-12-18T14:46:03;96871.91;;;4.31;76.61
69570;BME280;56781;42.292;23.146;2022-12-18T14:48:37;96868.13;;;4.27;77.78
69570;BME280;56781;42.292;23.146;2022-12-18T14:51:15;96859.31;;;4.15;76.95